| time (UTC) | temp C | wind direction | speed KPH | gust KPH | rain 1hr cm | rain 24hr cm | rain mn cm | humidity % | barometer mb |
| 20260903003509 | 15 | 25 | 0.0 | 0.0 | 0.03 | 0.30 | 0.30 | 3 | 1006.4 |
| 20260903003008 | 15 | 25 | 0.0 | 0.0 | 0.03 | 0.30 | 0.30 | 3 | 1006.2 |
| 20260903002507 | 15 | 25 | 0.0 | 0.0 | 0.03 | 0.30 | 0.30 | 4 | 1006.2 |
| 20260903002003 | 16 | 25 | 0.0 | 0.0 | 0.03 | 0.30 | 0.30 | 4 | 1006.2 |
| 20260903001503 | 16 | 25 | 0.0 | 0.0 | 0.03 | 0.30 | 0.30 | 7 | 1006.1 |
| 20260903001003 | 16 | 25 | 0.0 | 0.0 | 0.03 | 0.30 | 0.30 | 9 | 1006.1 |
| 20260903000600 | 16 | 25 | 0.0 | 0.0 | 0.03 | 0.30 | 0.30 | 10 | 1006.1 |
| 20260903000059 | 16 | 25 | 0.0 | 0.0 | 0.03 | 0.30 | 0.30 | 10 | 1006.1 |
| 20260902235557 | 16 | 25 | 0.0 | 0.0 | 0.03 | 0.30 | 0.30 | 7 | 1006.1 |
| 20260902235058 | 16 | 25 | 0.0 | 0.0 | 0.03 | 0.30 | 0.30 | 7 | 1005.9 |
| 20260902234554 | 16 | 25 | 0.0 | 0.0 | 0.03 | 0.30 | 0.30 | 6 | 1006.0 |
| 20260902234052 | 16 | 25 | 0.0 | 0.0 | 0.00 | 0.28 | 0.28 | 8 | 1006.1 |
| 20260902233551 | 16 | 25 | 0.0 | 0.0 | 0.00 | 0.28 | 0.28 | 7 | 1006.3 |
| 20260902233100 | 16 | 25 | 0.0 | 0.0 | 0.00 | 0.28 | 0.28 | 8 | 1006.3 |
| 20260902232548 | 16 | 25 | 0.0 | 0.0 | 0.00 | 0.28 | 0.28 | 8 | 1006.2 |
| 20260902232048 | 16 | 61 | 0.0 | 0.0 | 0.03 | 0.28 | 0.28 | 7 | 1006.3 |
| 20260902231547 | 16 | 61 | 0.0 | 0.0 | 0.03 | 0.28 | 0.28 | 8 | 1006.4 |
| 20260902231046 | 16 | 61 | 0.0 | 0.0 | 0.03 | 0.28 | 0.28 | 7 | 1006.5 |
| 20260902230542 | 16 | 61 | 0.0 | 0.0 | 0.03 | 0.28 | 0.28 | 7 | 1006.4 |
| 20260902230042 | 16 | 61 | 0.0 | 0.0 | 0.03 | 0.28 | 0.28 | 8 | 1006.2 |
| 20260902225541 | 16 | 61 | 0.0 | 0.0 | 0.03 | 0.28 | 0.28 | 8 | 1006.3 |
| 20260902225041 | 16 | 61 | 0.0 | 0.0 | 0.05 | 0.28 | 0.28 | 14 | 1006.3 |
| 20260902224549 | 16 | 61 | 0.0 | 0.0 | 0.05 | 0.28 | 0.28 | 15 | 1006.2 |
| 20260902224038 | 16 | 61 | 0.0 | 0.0 | 0.05 | 0.28 | 0.28 | 14 | 1006.2 |
| 20260902223538 | 16 | 61 | 0.0 | 0.0 | 0.05 | 0.28 | 0.28 | 14 | 1006.2 |
| 20260902223053 | 16 | 61 | 0.0 | 0.0 | 0.08 | 0.28 | 0.28 | 14 | 1006.3 |
| 20260902222537 | 16 | 61 | 0.0 | 0.0 | 0.08 | 0.28 | 0.28 | 16 | 1006.0 |
| 20260902222037 | 16 | 61 | 0.0 | 0.0 | 0.05 | 0.25 | 0.25 | 17 | 1006.1 |
| 20260902221539 | 16 | 61 | 0.0 | 0.0 | 0.05 | 0.25 | 0.25 | 18 | 1006.1 |
| 20260902221036 | 16 | 61 | 0.0 | 0.0 | 0.08 | 0.25 | 0.25 | 24 | 1006.1 |
| 20260902220534 | 16 | 61 | 0.0 | 0.0 | 0.08 | 0.25 | 0.25 | 28 | 1006.0 |
| 20260902220036 | 16 | 61 | 0.0 | 0.0 | 0.08 | 0.25 | 0.25 | 28 | 1005.9 |
| 20260902215532 | 16 | 61 | 0.0 | 0.0 | 0.10 | 0.25 | 0.25 | 26 | 1005.7 |
| 20260902215032 | 16 | 61 | 0.0 | 0.0 | 0.08 | 0.23 | 0.23 | 28 | 1005.6 |
| 20260902214533 | 16 | 61 | 0.0 | 0.0 | 0.08 | 0.23 | 0.23 | 33 | 1005.8 |
| 20260902214031 | 16 | 60 | 0.0 | 0.0 | 0.10 | 0.23 | 0.23 | 36 | 1005.8 |
| 20260902213529 | 16 | 60 | 0.0 | 0.0 | 0.08 | 0.20 | 0.20 | 38 | 1005.7 |
| 20260902213029 | 16 | 62 | 0.0 | 0.0 | 0.08 | 0.20 | 0.20 | 40 | 1005.8 |
| 20260902212529 | 16 | 64 | 0.0 | 0.0 | 0.10 | 0.20 | 0.20 | 40 | 1005.9 |
| 20260902212028 | 16 | 23 | 0.0 | 0.0 | 0.10 | 0.20 | 0.20 | 43 | 1005.9 |
| 20260902211530 | 16 | 134 | 0.0 | 0.0 | 0.08 | 0.18 | 0.18 | 42 | 1006.0 |
| 20260902211028 | 16 | 151 | 0.0 | 0.0 | 0.08 | 0.18 | 0.18 | 42 | 1006.0 |
| 20260902210528 | 16 | 151 | 0.0 | 0.0 | 0.08 | 0.18 | 0.18 | 45 | 1006.1 |
| 20260902210029 | 16 | 151 | 0.0 | 0.0 | 0.08 | 0.18 | 0.18 | 49 | 1006.3 |
| 20260902205527 | 16 | 151 | 0.0 | 0.0 | 0.08 | 0.15 | 0.15 | 51 | 1006.3 |
| 20260902205032 | 17 | 151 | 0.0 | 0.0 | 0.08 | 0.15 | 0.15 | 51 | 1006.3 |
| 20260902204539 | 17 | 142 | 0.0 | 0.0 | 0.05 | 0.13 | 0.13 | 48 | 1006.4 |
| 20260902204031 | 17 | 142 | 0.0 | 0.0 | 0.08 | 0.13 | 0.13 | 45 | 1006.3 |
| 20260902203533 | 17 | 142 | 0.0 | 0.0 | 0.08 | 0.13 | 0.13 | 45 | 1006.3 |
| 20260902203026 | 17 | 142 | 0.0 | 0.0 | 0.10 | 0.13 | 0.13 | 43 | 1006.2 |
| 20260902202526 | 17 | 142 | 0.0 | 0.0 | 0.08 | 0.10 | 0.10 | 46 | 1006.2 |
| 20260902202025 | 17 | 142 | 0.0 | 0.0 | 0.08 | 0.10 | 0.10 | 50 | 1006.2 |
| 20260902201524 | 17 | 142 | 0.0 | 0.0 | 0.08 | 0.10 | 0.10 | 52 | 1006.1 |
| 20260902201023 | 17 | 142 | 0.0 | 0.0 | 0.10 | 0.10 | 0.10 | 55 | 1006.1 |
| 20260902200522 | 17 | 142 | 0.0 | 0.0 | 0.10 | 0.10 | 0.10 | 62 | 1006.0 |
| 20260902200022 | 17 | 142 | 0.0 | 0.0 | 0.10 | 0.10 | 0.10 | 62 | 1006.0 |
| 20260902195521 | 17 | 142 | 0.0 | 0.0 | 0.08 | 0.08 | 0.08 | 65 | 1006.1 |
| 20260902195022 | 17 | 142 | 0.0 | 0.0 | 0.08 | 0.08 | 0.08 | 68 | 1006.0 |
| 20260902194525 | 17 | 142 | 0.0 | 0.0 | 0.08 | 0.08 | 0.08 | 70 | 1006.1 |
| 20260902194021 | 17 | 137 | 0.0 | 0.0 | 0.05 | 0.05 | 0.05 | 70 | 1006.1 |
| 20260902193522 | 17 | 136 | 0.0 | 0.0 | 0.05 | 0.05 | 0.05 | 71 | 1006.1 |
| 20260902193021 | 18 | 132 | 0.0 | 0.0 | 0.03 | 0.03 | 0.03 | 71 | 1005.9 |
| 20260902192520 | 18 | 116 | 0.0 | 0.0 | 0.03 | 0.03 | 0.03 | 70 | 1005.9 |
| 20260902192021 | 18 | 116 | 0.0 | 0.0 | 0.03 | 0.03 | 0.03 | 70 | 1005.9 |
| 20260902191521 | 18 | 116 | 0.0 | 0.0 | 0.03 | 0.03 | 0.03 | 70 | 1005.8 |
| 20260902191020 | 18 | 116 | 0.0 | 0.0 | 0.00 | 0.00 | 0.00 | 69 | 1005.7 |
| 20260902190520 | 18 | 116 | 0.0 | 0.0 | 0.00 | 0.00 | 0.00 | 67 | 1005.8 |
| 20260902190021 | 18 | 116 | 0.0 | 0.0 | 0.00 | 0.00 | 0.00 | 63 | 1005.7 |
| 20260902185519 | 18 | 116 | 0.0 | 0.0 | 0.00 | 0.00 | 0.00 | 61 | 1005.8 |
| 20260902185019 | 18 | 113 | 0.0 | 0.0 | 0.00 | 0.00 | 0.00 | 60 | 1005.8 |
| 20260902184528 | 18 | 161 | 0.0 | 0.0 | 0.00 | 0.00 | 0.00 | 59 | 1005.7 |
| 20260902184017 | 18 | 161 | 0.0 | 0.0 | 0.00 | 0.00 | 0.00 | 58 | 1005.7 |
| 20260902183517 | 18 | 161 | 0.0 | 0.0 | 0.00 | 0.00 | 0.00 | 58 | 1005.7 |
| 20260902183035 | 18 | 161 | 0.0 | 0.0 | 0.00 | 0.00 | 0.00 | 58 | 1005.6 |
| 20260902182515 | 18 | 159 | 0.0 | 0.0 | 0.00 | 0.00 | 0.00 | 58 | 1005.7 |
| 20260902182015 | 18 | 161 | 0.0 | 0.0 | 0.00 | 0.00 | 0.00 | 58 | 1005.7 |
| 20260902181517 | 18 | 161 | 0.0 | 0.0 | 0.00 | 0.00 | 0.00 | 59 | 1005.7 |
| 20260902181014 | 18 | 160 | 0.0 | 0.0 | 0.00 | 0.00 | 0.00 | 58 | 1005.8 |
| 20260902180514 | 18 | 152 | 0.0 | 0.0 | 0.00 | 0.00 | 0.00 | 59 | 1005.8 |
| 20260902180014 | 18 | 153 | 0.0 | 0.0 | 0.00 | 0.00 | 0.00 | 60 | 1005.7 |
| 20260902175512 | 18 | 36 | 0.0 | 0.0 | 0.00 | 0.00 | 0.00 | 62 | 1005.8 |
| 20260902175011 | 18 | 38 | 0.0 | 0.0 | 0.00 | 0.00 | 0.00 | 62 | 1005.8 |
| 20260902174516 | 18 | 40 | 0.0 | 0.0 | 0.00 | 0.00 | 0.00 | 62 | 1005.8 |
| 20260902174009 | 18 | 52 | 0.0 | 0.0 | 0.00 | 0.00 | 0.00 | 62 | 1005.8 |
| 20260902173508 | 17 | 30 | 0.0 | 0.0 | 0.00 | 0.00 | 0.00 | 64 | 1005.9 |
| 20260902173011 | 17 | 19 | 0.0 | 0.0 | 0.00 | 0.00 | 0.00 | 64 | 1006.0 |
| 20260902172507 | 17 | 68 | 0.0 | 0.0 | 0.00 | 0.00 | 0.00 | 63 | 1006.1 |
| 20260902172007 | 17 | 49 | 0.0 | 0.0 | 0.00 | 0.00 | 0.00 | 64 | 1006.2 |
| 20260902171505 | 17 | 36 | 0.0 | 0.0 | 0.00 | 0.00 | 0.00 | 64 | 1006.2 |
| 20260902171004 | 17 | 40 | 0.0 | 0.0 | 0.00 | 0.00 | 0.00 | 64 | 1006.3 |
| 20260902170504 | 17 | 63 | 0.0 | 0.0 | 0.00 | 0.00 | 0.00 | 65 | 1006.2 |
| 20260902170003 | 17 | 5 | 0.0 | 0.0 | 0.00 | 0.00 | 0.00 | 66 | 1006.3 |
| 20260902165501 | 17 | 23 | 0.0 | 0.0 | 0.00 | 0.00 | 0.00 | 66 | 1006.4 |
| 20260902165100 | 17 | 258 | 0.0 | 0.0 | 0.00 | 0.00 | 0.00 | 66 | 1006.4 |
| 20260902164605 | 16 | 258 | 0.0 | 0.0 | 0.00 | 0.00 | 0.00 | 66 | 1006.5 |
| 20260902164058 | 16 | 234 | 0.0 | 0.0 | 0.00 | 0.00 | 0.00 | 68 | 1006.5 |
| 20260902163558 | 16 | 225 | 0.0 | 0.0 | 0.00 | 0.00 | 0.00 | 69 | 1006.5 |
| 20260902163102 | 16 | 225 | 0.0 | 0.0 | 0.00 | 0.00 | 0.00 | 69 | 1006.5 |
| 20260902162556 | 16 | 225 | 0.0 | 0.0 | 0.00 | 0.00 | 0.00 | 69 | 1006.6 |
| 20260902162057 | 16 | 224 | 0.0 | 0.0 | 0.00 | 0.00 | 0.00 | 70 | 1006.6 |
| 20260902161558 | 16 | 224 | 0.0 | 0.0 | 0.00 | 0.00 | 0.00 | 70 | 1006.8 |
| 20260902161058 | 15 | 224 | 0.0 | 0.0 | 0.00 | 0.00 | 0.00 | 71 | 1006.8 |
| 20260902160556 | 15 | 224 | 0.0 | 0.0 | 0.00 | 0.00 | 0.00 | 71 | 1006.7 |
| 20260902160056 | 15 | 224 | 0.0 | 0.0 | 0.00 | 0.00 | 0.00 | 71 | 1006.8 |
| 20260902155555 | 15 | 224 | 0.0 | 0.0 | 0.00 | 0.00 | 0.00 | 71 | 1006.8 |
| 20260902155055 | 15 | 201 | 0.0 | 0.0 | 0.00 | 0.00 | 0.00 | 72 | 1006.9 |
| 20260902154554 | 15 | 199 | 0.0 | 0.0 | 0.00 | 0.00 | 0.00 | 72 | 1006.8 |
| 20260902154054 | 15 | 199 | 0.0 | 0.0 | 0.00 | 0.00 | 0.00 | 72 | 1006.9 |
| 20260902153555 | 15 | 199 | 0.0 | 0.0 | 0.00 | 0.00 | 0.00 | 72 | 1007.0 |
| 20260902153105 | 14 | 199 | 0.0 | 0.0 | 0.00 | 0.00 | 0.00 | 71 | 1007.1 |
| 20260902152558 | 14 | 199 | 0.0 | 0.0 | 0.00 | 0.00 | 0.00 | 71 | 1007.2 |
| 20260902152052 | 14 | 199 | 0.0 | 0.0 | 0.00 | 0.00 | 0.00 | 70 | 1007.2 |
| 20260902151554 | 14 | 199 | 0.0 | 0.0 | 0.00 | 0.00 | 0.00 | 71 | 1007.1 |
| 20260902151055 | 14 | 199 | 0.0 | 0.0 | 0.00 | 0.00 | 0.00 | 71 | 1007.2 |
| 20260902150551 | 13 | 199 | 0.0 | 0.0 | 0.00 | 0.00 | 0.00 | 70 | 1007.2 |
| 20260902150051 | 13 | 199 | 0.0 | 0.0 | 0.00 | 0.00 | 0.00 | 70 | 1007.4 |
| 20260902145550 | 13 | 199 | 0.0 | 0.0 | 0.00 | 0.00 | 0.00 | 69 | 1007.4 |
| 20260902145053 | 13 | 199 | 0.0 | 0.0 | 0.00 | 0.00 | 0.00 | 69 | 1007.4 |
| 20260902144550 | 13 | 199 | 0.0 | 0.0 | 0.00 | 0.00 | 0.00 | 70 | 1007.4 |
| 20260902144050 | 13 | 199 | 0.0 | 0.0 | 0.00 | 0.00 | 0.00 | 70 | 1007.3 |
| 20260902143550 | 13 | 199 | 0.0 | 0.0 | 0.00 | 0.00 | 0.00 | 70 | 1007.4 |
| 20260902143052 | 13 | 199 | 0.0 | 0.0 | 0.00 | 0.00 | 0.00 | 70 | 1007.6 |
| 20260902142549 | 13 | 199 | 0.0 | 0.0 | 0.00 | 0.00 | 0.00 | 71 | 1007.6 |
| 20260902142049 | 13 | 199 | 0.0 | 0.0 | 0.00 | 0.00 | 0.00 | 71 | 1007.6 |
| 20260902141549 | 13 | 199 | 0.0 | 0.0 | 0.00 | 0.00 | 0.00 | 71 | 1007.6 |
| 20260902141048 | 13 | 199 | 0.0 | 0.0 | 0.00 | 0.00 | 0.00 | 71 | 1007.5 |
| 20260902140549 | 13 | 199 | 0.0 | 0.0 | 0.00 | 0.00 | 0.00 | 71 | 1007.6 |
| 20260902140051 | 13 | 199 | 0.0 | 0.0 | 0.00 | 0.00 | 0.00 | 72 | 1007.7 |
| 20260902135548 | 13 | 199 | 0.0 | 0.0 | 0.00 | 0.00 | 0.00 | 72 | 1007.7 |
| 20260902135047 | 13 | 199 | 0.0 | 0.0 | 0.00 | 0.00 | 0.00 | 72 | 1007.6 |
| 20260902134548 | 13 | 199 | 0.0 | 0.0 | 0.00 | 0.00 | 0.00 | 72 | 1007.5 |
| 20260902134046 | 13 | 199 | 0.0 | 0.0 | 0.00 | 0.00 | 0.00 | 72 | 1007.4 |
| 20260902133545 | 13 | 197 | 0.0 | 0.0 | 0.00 | 0.00 | 0.00 | 72 | 1007.7 |
| 20260902133044 | 13 | 198 | 0.0 | 0.0 | 0.00 | 0.00 | 0.00 | 72 | 1007.7 |
| 20260902132543 | 13 | 198 | 0.0 | 0.0 | 0.00 | 0.00 | 0.00 | 72 | 1007.8 |
| 20260902132043 | 13 | 198 | 0.0 | 0.0 | 0.00 | 0.00 | 0.00 | 72 | 1007.9 |
| 20260902131543 | 13 | 198 | 0.0 | 0.0 | 0.00 | 0.00 | 0.00 | 72 | 1007.9 |
| 20260902131043 | 13 | 194 | 0.0 | 0.0 | 0.00 | 0.00 | 0.00 | 72 | 1007.9 |
| 20260902130543 | 13 | 183 | 0.0 | 0.0 | 0.00 | 0.00 | 0.00 | 72 | 1008.0 |
| 20260902130043 | 13 | 186 | 0.0 | 0.0 | 0.00 | 0.00 | 0.00 | 72 | 1007.9 |
| 20260902125542 | 13 | 188 | 0.0 | 0.0 | 0.00 | 0.00 | 0.00 | 72 | 1008.0 |
| 20260902125141 | 13 | 215 | 0.0 | 0.0 | 0.00 | 0.00 | 0.00 | 72 | 1008.0 |
| 20260902124541 | 13 | 149 | 0.0 | 0.0 | 0.00 | 0.00 | 0.00 | 72 | 1007.9 |
| 20260902124041 | 13 | 145 | 0.0 | 0.0 | 0.00 | 0.00 | 0.00 | 72 | 1007.9 |
| 20260902123539 | 13 | 150 | 0.0 | 0.0 | 0.00 | 0.00 | 0.00 | 72 | 1007.9 |
| 20260902123039 | 14 | 148 | 0.0 | 0.0 | 0.00 | 0.00 | 0.00 | 71 | 1008.0 |
| 20260902122539 | 14 | 221 | 0.0 | 0.0 | 0.00 | 0.00 | 0.00 | 72 | 1008.0 |
| 20260902122037 | 14 | 221 | 0.0 | 0.0 | 0.00 | 0.00 | 0.00 | 71 | 1008.0 |
| 20260902121539 | 14 | 221 | 0.0 | 0.0 | 0.00 | 0.00 | 0.00 | 71 | 1007.8 |
| 20260902121037 | 14 | 221 | 0.0 | 0.0 | 0.00 | 0.00 | 0.00 | 71 | 1007.9 |
| 20260902120537 | 14 | 221 | 0.0 | 0.0 | 0.00 | 0.00 | 0.00 | 71 | 1007.9 |
| 20260902120036 | 14 | 234 | 0.0 | 0.0 | 0.00 | 0.00 | 0.00 | 71 | 1008.0 |
| 20260902115535 | 14 | 242 | 0.0 | 0.0 | 0.00 | 0.00 | 0.00 | 71 | 1008.0 |
| 20260902115035 | 14 | 227 | 0.0 | 0.0 | 0.00 | 0.00 | 0.00 | 71 | 1008.1 |
| 20260902114535 | 15 | 222 | 0.0 | 0.0 | 0.00 | 0.00 | 0.00 | 71 | 1008.0 |
| 20260902114034 | 15 | 222 | 0.0 | 0.0 | 0.00 | 0.00 | 0.00 | 71 | 1008.1 |
| 20260902113533 | 15 | 222 | 0.0 | 0.0 | 0.00 | 0.00 | 0.00 | 71 | 1008.0 |
| 20260902113034 | 15 | 222 | 0.0 | 0.0 | 0.00 | 0.00 | 0.00 | 71 | 1008.0 |
| 20260902112533 | 15 | 259 | 0.0 | 0.0 | 0.00 | 0.00 | 0.00 | 71 | 1008.1 |
| 20260902112033 | 15 | 259 | 0.0 | 0.0 | 0.00 | 0.00 | 0.00 | 71 | 1008.1 |
| 20260902111533 | 15 | 260 | 0.0 | 0.0 | 0.00 | 0.00 | 0.00 | 71 | 1008.1 |
| 20260902111158 | 15 | 263 | 0.0 | 0.0 | 0.00 | 0.00 | 0.00 | 71 | 1008.0 |
| 20260902110534 | 15 | 296 | 0.0 | 0.0 | 0.00 | 0.00 | 0.00 | 71 | 1008.1 |
| 20260902110044 | 15 | 296 | 0.0 | 0.0 | 0.00 | 0.00 | 0.00 | 71 | 1008.0 |
| 20260902105532 | 15 | 266 | 0.0 | 0.0 | 0.00 | 0.00 | 0.00 | 71 | 1008.0 |
| 20260902105032 | 15 | 263 | 0.0 | 0.0 | 0.00 | 0.00 | 0.00 | 71 | 1008.1 |
| 20260902104550 | 15 | 288 | 0.0 | 0.0 | 0.00 | 0.00 | 0.00 | 72 | 1007.9 |
| 20260902104030 | 15 | 267 | 0.0 | 0.0 | 0.00 | 0.00 | 0.00 | 72 | 1007.9 |
| 20260902103529 | 15 | 273 | 0.0 | 0.0 | 0.00 | 0.00 | 0.00 | 71 | 1008.1 |
| 20260902103046 | 15 | 264 | 0.0 | 0.0 | 0.00 | 0.00 | 0.00 | 71 | 1008.2 |
| 20260902102530 | 15 | 248 | 0.0 | 0.0 | 0.00 | 0.00 | 0.00 | 71 | 1008.1 |
| 20260902102029 | 15 | 213 | 0.0 | 0.0 | 0.00 | 0.00 | 0.00 | 71 | 1008.2 |
| 20260902101528 | 15 | 223 | 0.0 | 0.0 | 0.00 | 0.00 | 0.00 | 71 | 1008.2 |
| 20260902101030 | 15 | 271 | 0.0 | 0.0 | 0.00 | 0.00 | 0.00 | 71 | 1008.2 |
| 20260902100528 | 15 | 263 | 0.0 | 0.0 | 0.00 | 0.00 | 0.00 | 71 | 1008.2 |
| 20260902100028 | 15 | 196 | 0.0 | 0.0 | 0.00 | 0.00 | 0.00 | 71 | 1008.3 |
| 20260902095528 | 15 | 252 | 0.0 | 0.0 | 0.00 | 0.00 | 0.00 | 71 | 1008.3 |
| 20260902095027 | 15 | 277 | 0.0 | 0.0 | 0.00 | 0.00 | 0.00 | 71 | 1008.3 |
| 20260902094528 | 15 | 254 | 0.0 | 0.0 | 0.00 | 0.00 | 0.00 | 71 | 1008.2 |
| 20260902094027 | 15 | 267 | 0.0 | 0.0 | 0.00 | 0.00 | 0.00 | 71 | 1008.3 |
| 20260902093527 | 15 | 272 | 0.0 | 0.0 | 0.00 | 0.00 | 0.00 | 71 | 1008.1 |
| 20260902093026 | 15 | 293 | 0.0 | 0.0 | 0.00 | 0.00 | 0.00 | 71 | 1008.3 |
| 20260902092528 | 15 | 298 | 0.0 | 0.0 | 0.00 | 0.00 | 0.00 | 71 | 1008.4 |
| 20260902092026 | 15 | 251 | 0.0 | 0.0 | 0.00 | 0.00 | 0.00 | 71 | 1008.4 |
| 20260902091527 | 15 | 263 | 0.0 | 0.0 | 0.00 | 0.00 | 0.00 | 71 | 1008.3 |
| 20260902091026 | 15 | 268 | 0.0 | 0.0 | 0.00 | 0.00 | 0.00 | 71 | 1008.4 |
| 20260902090525 | 15 | 286 | 0.0 | 0.0 | 0.00 | 0.00 | 0.00 | 71 | 1008.4 |
| 20260902090029 | 15 | 288 | 0.0 | 0.0 | 0.00 | 0.00 | 0.00 | 71 | 1008.4 |
| 20260902085528 | 15 | 281 | 0.0 | 0.0 | 0.00 | 0.00 | 0.00 | 71 | 1008.4 |
| 20260902085024 | 15 | 290 | 0.0 | 0.0 | 0.00 | 0.00 | 0.00 | 71 | 1008.3 |
| 20260902084534 | 15 | 262 | 0.0 | 0.0 | 0.00 | 0.00 | 0.00 | 71 | 1008.4 |
| 20260902084027 | 15 | 248 | 0.0 | 0.0 | 0.00 | 0.00 | 0.00 | 71 | 1008.4 |
| 20260902083528 | 15 | 306 | 0.0 | 0.0 | 0.00 | 0.00 | 0.00 | 71 | 1008.4 |
| 20260902083023 | 15 | 299 | 0.0 | 0.0 | 0.00 | 0.00 | 0.00 | 71 | 1008.3 |
| 20260902082524 | 15 | 286 | 0.0 | 0.0 | 0.00 | 0.00 | 0.00 | 71 | 1008.4 |
| 20260902082022 | 15 | 283 | 0.0 | 0.0 | 0.00 | 0.00 | 0.00 | 71 | 1008.4 |
| 20260902081523 | 15 | 272 | 0.0 | 0.0 | 0.00 | 0.00 | 0.00 | 71 | 1008.4 |
| 20260902081023 | 15 | 271 | 0.0 | 0.0 | 0.00 | 0.00 | 0.00 | 71 | 1008.3 |
| 20260902080522 | 15 | 259 | 0.0 | 0.0 | 0.00 | 0.00 | 0.00 | 71 | 1008.3 |
| 20260902080023 | 15 | 259 | 0.0 | 0.0 | 0.00 | 0.00 | 0.00 | 70 | 1008.3 |
| 20260902075520 | 15 | 243 | 0.0 | 0.0 | 0.00 | 0.00 | 0.00 | 71 | 1008.4 |
| 20260902075020 | 15 | 253 | 0.0 | 0.0 | 0.00 | 0.00 | 0.00 | 71 | 1008.5 |
| 20260902074520 | 16 | 229 | 0.0 | 0.0 | 0.00 | 0.00 | 0.00 | 71 | 1008.6 |
| 20260902074019 | 16 | 295 | 0.0 | 0.0 | 0.00 | 0.00 | 0.00 | 70 | 1008.7 |
| 20260902073520 | 16 | 282 | 0.0 | 0.0 | 0.00 | 0.00 | 0.00 | 70 | 1008.5 |
| 20260902073018 | 16 | 281 | 0.0 | 0.0 | 0.00 | 0.00 | 0.00 | 70 | 1008.5 |
| 20260902072518 | 16 | 293 | 0.0 | 0.0 | 0.00 | 0.00 | 0.00 | 70 | 1008.5 |
| 20260902072017 | 16 | 286 | 0.0 | 0.0 | 0.00 | 0.00 | 0.00 | 70 | 1008.4 |
| 20260902071517 | 16 | 270 | 0.0 | 0.0 | 0.00 | 0.00 | 0.00 | 70 | 1008.6 |
| 20260902071016 | 16 | 292 | 0.0 | 0.0 | 0.00 | 0.00 | 0.00 | 69 | 1008.7 |
| 20260902070514 | 16 | 302 | 0.0 | 0.0 | 0.00 | 0.00 | 0.00 | 69 | 1008.7 |
| 20260902070022 | 16 | 300 | 0.0 | 0.0 | 0.00 | 0.00 | 0.00 | 69 | 1008.6 |
| 20260902065513 | 16 | 317 | 0.0 | 0.0 | 0.00 | 0.00 | 0.00 | 69 | 1008.4 |
| 20260902065015 | 16 | 298 | 0.0 | 0.0 | 0.00 | 0.00 | 0.00 | 69 | 1008.6 |
| 20260902064514 | 16 | 301 | 0.0 | 0.0 | 0.00 | 0.00 | 0.00 | 68 | 1008.5 |
| 20260902064012 | 16 | 287 | 0.0 | 0.0 | 0.00 | 0.00 | 0.00 | 68 | 1008.6 |
| 20260902063513 | 16 | 304 | 0.0 | 0.0 | 0.00 | 0.00 | 0.00 | 68 | 1008.8 |
| 20260902063035 | 17 | 290 | 0.0 | 0.0 | 0.00 | 0.00 | 0.00 | 68 | 1008.8 |
| 20260902062513 | 17 | 248 | 0.0 | 0.0 | 0.00 | 0.00 | 0.00 | 68 | 1008.6 |
| 20260902062012 | 17 | 254 | 0.0 | 0.0 | 0.00 | 0.00 | 0.00 | 68 | 1008.6 |
| 20260902061512 | 17 | 284 | 0.0 | 0.0 | 0.00 | 0.00 | 0.00 | 67 | 1008.5 |
| 20260902061012 | 17 | 275 | 0.0 | 0.0 | 0.00 | 0.00 | 0.00 | 67 | 1008.5 |
| 20260902060512 | 17 | 290 | 0.0 | 0.0 | 0.00 | 0.00 | 0.00 | 67 | 1008.6 |
| 20260902060012 | 17 | 275 | 0.0 | 0.0 | 0.00 | 0.00 | 0.00 | 67 | 1008.7 |
| 20260902055511 | 17 | 286 | 0.0 | 0.0 | 0.00 | 0.00 | 0.00 | 67 | 1008.5 |
| 20260902055011 | 17 | 280 | 0.0 | 0.0 | 0.00 | 0.00 | 0.00 | 67 | 1008.7 |
| 20260902054513 | 17 | 287 | 0.0 | 0.0 | 0.00 | 0.00 | 0.00 | 67 | 1008.9 |
| 20260902054011 | 17 | 212 | 0.0 | 0.0 | 0.00 | 0.00 | 0.00 | 67 | 1008.6 |
| 20260902053511 | 17 | 269 | 0.0 | 0.0 | 0.00 | 0.00 | 0.00 | 67 | 1008.4 |
| 20260902053011 | 17 | 299 | 0.0 | 0.0 | 0.00 | 0.00 | 0.00 | 67 | 1008.5 |
| 20260902052510 | 17 | 246 | 0.0 | 0.0 | 0.00 | 0.00 | 0.00 | 67 | 1008.5 |
| 20260902052010 | 17 | 312 | 0.0 | 0.0 | 0.00 | 0.00 | 0.00 | 67 | 1008.5 |
| 20260902051511 | 17 | 275 | 0.0 | 0.0 | 0.00 | 0.00 | 0.00 | 66 | 1008.6 |
| 20260902051011 | 17 | 269 | 0.0 | 0.0 | 0.00 | 0.00 | 0.00 | 66 | 1008.6 |
| 20260902050511 | 17 | 279 | 0.0 | 0.0 | 0.00 | 0.00 | 0.00 | 66 | 1008.9 |
| 20260902050012 | 17 | 239 | 0.0 | 0.0 | 0.00 | 0.00 | 0.00 | 66 | 1008.7 |
| 20260902045508 | 17 | 286 | 0.0 | 0.0 | 0.00 | 0.00 | 0.00 | 65 | 1008.6 |
| 20260902045008 | 17 | 292 | 0.0 | 0.0 | 0.00 | 0.00 | 0.00 | 65 | 1008.6 |
| 20260902044508 | 17 | 255 | 0.0 | 0.0 | 0.00 | 0.00 | 0.00 | 65 | 1008.4 |
| 20260902044008 | 17 | 285 | 0.0 | 0.0 | 0.00 | 0.00 | 0.00 | 64 | 1008.3 |
| 20260902043507 | 17 | 322 | 0.0 | 0.0 | 0.00 | 0.00 | 0.00 | 64 | 1008.3 |
| 20260902043007 | 17 | 286 | 0.0 | 0.0 | 0.00 | 0.00 | 0.00 | 64 | 1008.3 |
| 20260902042508 | 17 | 259 | 0.0 | 0.0 | 0.00 | 0.00 | 0.00 | 64 | 1008.3 |
| 20260902042007 | 17 | 302 | 0.0 | 0.0 | 0.00 | 0.00 | 0.00 | 64 | 1008.3 |
| 20260902041505 | 17 | 279 | 0.0 | 0.0 | 0.00 | 0.00 | 0.00 | 64 | 1008.1 |
| 20260902041005 | 17 | 282 | 0.0 | 0.0 | 0.00 | 0.00 | 0.00 | 64 | 1007.9 |
| 20260902040505 | 17 | 317 | 0.0 | 0.0 | 0.00 | 0.00 | 0.00 | 64 | 1007.8 |
| 20260902040005 | 17 | 286 | 0.0 | 0.0 | 0.00 | 0.00 | 0.00 | 64 | 1007.7 |
| 20260902035504 | 17 | 294 | 0.0 | 0.0 | 0.00 | 0.00 | 0.00 | 64 | 1007.9 |
| 20260902035004 | 17 | 298 | 0.0 | 0.0 | 0.00 | 0.00 | 0.00 | 65 | 1007.8 |
| 20260902034505 | 17 | 248 | 0.0 | 0.0 | 0.00 | 0.00 | 0.00 | 65 | 1007.6 |
| 20260902034004 | 17 | 261 | 0.0 | 0.0 | 0.00 | 0.00 | 0.00 | 65 | 1007.7 |
| 20260902033504 | 17 | 257 | 0.0 | 0.0 | 0.00 | 0.00 | 0.00 | 65 | 1007.6 |
| 20260902033004 | 17 | 311 | 0.0 | 0.0 | 0.00 | 0.00 | 0.00 | 65 | 1007.4 |
| 20260902032506 | 17 | 318 | 0.0 | 0.0 | 0.00 | 0.00 | 0.00 | 65 | 1007.5 |
| 20260902032003 | 17 | 283 | 0.0 | 0.0 | 0.00 | 0.00 | 0.00 | 65 | 1007.6 |
| 20260902031515 | 17 | 300 | 0.0 | 0.0 | 0.00 | 0.00 | 0.00 | 65 | 1007.6 |
| 20260902031003 | 17 | 288 | 0.0 | 0.0 | 0.00 | 0.00 | 0.00 | 64 | 1007.6 |
| 20260902030507 | 17 | 288 | 0.0 | 0.0 | 0.00 | 0.00 | 0.00 | 64 | 1007.6 |
| 20260902030004 | 18 | 273 | 0.0 | 0.0 | 0.00 | 0.00 | 0.00 | 64 | 1007.8 |
| 20260902025604 | 18 | 278 | 0.0 | 0.0 | 0.00 | 0.00 | 0.00 | 64 | 1007.7 |
| 20260902025002 | 18 | 275 | 0.0 | 0.0 | 0.00 | 0.00 | 0.00 | 64 | 1007.5 |
| 20260902024502 | 18 | 269 | 0.0 | 0.0 | 0.00 | 0.00 | 0.00 | 64 | 1007.4 |
| 20260902024001 | 18 | 308 | 0.0 | 0.0 | 0.00 | 0.00 | 0.00 | 63 | 1007.4 |
| 20260902023501 | 18 | 277 | 0.0 | 0.0 | 0.00 | 0.00 | 0.00 | 63 | 1007.3 |
| 20260902023008 | 18 | 267 | 0.0 | 0.0 | 0.00 | 0.00 | 0.00 | 63 | 1007.1 |
| 20260902022502 | 18 | 271 | 0.0 | 0.0 | 0.00 | 0.00 | 0.00 | 63 | 1007.0 |
| 20260902022004 | 18 | 292 | 0.0 | 0.0 | 0.00 | 0.00 | 0.00 | 63 | 1007.0 |
| 20260902021504 | 18 | 281 | 0.0 | 0.0 | 0.00 | 0.00 | 0.00 | 63 | 1006.9 |
| 20260902021001 | 18 | 308 | 0.0 | 0.0 | 0.00 | 0.00 | 0.00 | 63 | 1007.3 |
| 20260902020501 | 18 | 273 | 0.0 | 0.0 | 0.00 | 0.00 | 0.00 | 63 | 1007.0 |
| 20260902020001 | 18 | 322 | 0.0 | 0.0 | 0.00 | 0.00 | 0.00 | 62 | 1007.1 |
| 20260902015603 | 18 | 296 | 0.0 | 0.0 | 0.00 | 0.00 | 0.00 | 62 | 1006.9 |
| 20260902015101 | 18 | 244 | 0.0 | 0.0 | 0.00 | 0.00 | 0.00 | 61 | 1007.0 |
| 20260902014600 | 18 | 261 | 0.0 | 0.0 | 0.00 | 0.00 | 0.00 | 60 | 1006.9 |
| 20260902014059 | 18 | 252 | 0.0 | 0.0 | 0.00 | 0.00 | 0.00 | 60 | 1006.8 |
| 20260902013600 | 19 | 288 | 0.0 | 0.0 | 0.00 | 0.00 | 0.00 | 59 | 1006.7 |
| 20260902013110 | 19 | 317 | 0.0 | 0.0 | 0.00 | 0.00 | 0.00 | 59 | 1006.7 |
| 20260902012600 | 19 | 250 | 0.0 | 0.0 | 0.00 | 0.00 | 0.00 | 58 | 1006.7 |
| 20260902012059 | 19 | 289 | 0.0 | 0.0 | 0.00 | 0.00 | 0.00 | 58 | 1006.7 |
| 20260902011559 | 20 | 285 | 0.0 | 0.0 | 0.00 | 0.00 | 0.00 | 59 | 1006.7 |
| 20260902011059 | 19 | 293 | 0.0 | 0.0 | 0.00 | 0.00 | 0.00 | 59 | 1006.9 |
| 20260902010601 | 19 | 277 | 0.0 | 0.0 | 0.00 | 0.00 | 0.00 | 59 | 1006.7 |
| 20260902010500 | 19 | 262 | 0.0 | 0.0 | 0.00 | 0.00 | 0.00 | 59 | 1006.8 |
| 20260902010105 | 19 | 278 | 0.0 | 0.0 | 0.00 | 0.00 | 0.00 | 59 | 1006.6 |
| 20260902005558 | 19 | 285 | 0.0 | 0.0 | 0.00 | 0.00 | 0.00 | 59 | 1006.6 |
| 20260902005058 | 19 | 305 | 0.0 | 0.0 | 0.00 | 0.00 | 0.00 | 59 | 1006.5 |
| 20260902004558 | 19 | 300 | 0.0 | 0.0 | 0.00 | 0.00 | 0.00 | 59 | 1006.6 |
| 20260902004059 | 19 | 318 | 0.0 | 0.0 | 0.00 | 0.00 | 0.00 | 59 | 1006.6 |